Time;durP1;ratioP1;P1;durP2;ratioP2;P2;SDS_P1;SDS_P2;PMS_P1;PMS_P2;Temp;Humidity;BMP_temperature;BMP_pressure;BME280_temperature;BME280_humidity;BME280_pressure;Samples;Min_cycle;Max_cycle;Signal;HPM_P1;HPM_P2
2024/03/29 00:01:04;;;;;;;9.70;2.78;;;;;;;8.06;100.00;100172.41;5040410;28;20029;-68
2024/03/29 00:03:29;;;;;;;7.72;3.60;;;;;;;8.08;100.00;100179.09;5039728;28;20115;-68
2024/03/29 00:05:54;;;;;;;9.15;2.90;;;;;;;8.11;100.00;100178.84;5048227;28;20377;-69
2024/03/29 00:08:20;;;;;;;7.78;2.78;;;;;;;8.16;100.00;100174.06;5048209;28;20033;-68
2024/03/29 00:10:48;;;;;;;10.93;4.85;;;;;;;8.21;100.00;100186.63;5043606;28;20033;-68
2024/03/29 00:13:14;;;;;;;11.15;3.03;;;;;;;8.20;100.00;100185.00;5041690;28;20390;-68
2024/03/29 00:15:39;;;;;;;7.07;1.65;;;;;;;8.19;100.00;100186.75;5038708;28;20036;-69
2024/03/29 00:18:06;;;;;;;6.43;2.20;;;;;;;8.21;100.00;100190.03;5038368;28;20064;-69
2024/03/29 00:20:32;;;;;;;9.77;2.35;;;;;;;8.22;100.00;100181.31;5038756;28;20029;-68
2024/03/29 00:22:57;;;;;;;8.23;1.65;;;;;;;8.26;100.00;100190.47;5032574;28;20049;-69
2024/03/29 00:25:23;;;;;;;4.45;1.05;;;;;;;8.27;100.00;100181.72;5035541;28;20118;-68
2024/03/29 00:27:48;;;;;;;10.07;1.38;;;;;;;8.23;100.00;100184.72;5037313;28;20049;-69
2024/03/29 00:30:14;;;;;;;5.40;1.25;;;;;;;8.17;100.00;100187.84;5031087;28;20076;-69
2024/03/29 00:32:40;;;;;;;2.35;0.80;;;;;;;8.13;100.00;100186.47;5043986;28;20033;-69
2024/03/29 00:35:06;;;;;;;6.25;1.55;;;;;;;8.09;100.00;100198.09;5041404;28;20033;-68
2024/03/29 00:37:32;;;;;;;5.38;1.90;;;;;;;8.11;100.00;100191.81;5053720;28;20033;-68
2024/03/29 00:39:57;;;;;;;9.80;1.80;;;;;;;8.15;100.00;100188.00;5037345;28;20043;-68
2024/03/29 00:42:24;;;;;;;7.38;2.38;;;;;;;8.16;100.00;100189.63;5041132;28;20480;-69
2024/03/29 00:44:50;;;;;;;10.75;2.58;;;;;;;8.14;100.00;100193.31;5039958;28;20025;-68
2024/03/29 00:47:15;;;;;;;6.82;2.00;;;;;;;8.04;100.00;100197.66;5038861;28;20040;-68
2024/03/29 00:49:41;;;;;;;8.00;1.75;;;;;;;7.93;100.00;100191.66;5043716;28;20032;-68
2024/03/29 00:52:07;;;;;;;5.38;1.70;;;;;;;7.85;100.00;100198.47;5043218;28;20025;-69
2024/03/29 00:54:32;;;;;;;7.28;1.42;;;;;;;7.78;100.00;100205.13;5041419;28;20036;-69
2024/03/29 00:56:58;;;;;;;5.05;1.27;;;;;;;7.68;100.00;100209.47;5047699;28;20032;-69
2024/03/29 00:59:24;;;;;;;6.00;1.20;;;;;;;7.61;100.00;100210.00;5044856;28;20167;-68
2024/03/29 01:01:50;;;;;;;6.05;1.58;;;;;;;7.54;100.00;100203.72;5046821;28;20029;-68
2024/03/29 01:04:16;;;;;;;9.07;1.63;;;;;;;7.50;100.00;100202.34;5044477;28;20033;-69
2024/03/29 01:06:42;;;;;;;13.23;1.90;;;;;;;7.49;100.00;100190.34;5038859;28;20035;-69
2024/03/29 01:09:11;;;;;;;12.68;2.05;;;;;;;7.54;100.00;100189.94;5043610;28;20025;-69
2024/03/29 01:11:37;;;;;;;5.00;2.13;;;;;;;7.50;100.00;100185.97;5041802;28;20060;-68
2024/03/29 01:14:03;;;;;;;9.13;2.00;;;;;;;7.42;100.00;100178.84;5039728;28;20556;-68
2024/03/29 01:16:28;;;;;;;8.40;1.83;;;;;;;7.32;100.00;100177.97;5042851;28;20025;-68
2024/03/29 01:18:54;;;;;;;8.25;2.80;;;;;;;7.24;100.00;100178.63;5041237;28;20432;-69
2024/03/29 01:21:19;;;;;;;8.20;2.40;;;;;;;7.22;100.00;100177.13;5045528;28;20463;-68
2024/03/29 01:23:45;;;;;;;6.78;2.67;;;;;;;7.19;100.00;100179.97;5044643;28;20062;-68
2024/03/29 01:26:12;;;;;;;7.05;2.13;;;;;;;7.16;100.00;100183.63;5044944;28;20063;-69
2024/03/29 01:28:38;;;;;;;7.72;2.10;;;;;;;7.10;100.00;100173.78;5045880;28;20338;-68
2024/03/29 01:31:04;;;;;;;8.80;2.45;;;;;;;7.04;100.00;100183.88;5044527;28;20059;-69
2024/03/29 01:33:33;;;;;;;8.73;2.63;;;;;;;7.05;100.00;100175.97;5043272;28;20046;-68
2024/03/29 01:35:58;;;;;;;8.70;2.67;;;;;;;7.14;100.00;100177.75;5040403;28;20029;-69
2024/03/29 01:38:24;;;;;;;9.27;2.17;;;;;;;7.09;100.00;100181.72;5033250;28;21494;-68
2024/03/29 01:40:49;;;;;;;12.88;2.72;;;;;;;6.97;100.00;100174.00;5036359;28;20036;-68
2024/03/29 01:43:15;;;;;;;10.40;2.05;;;;;;;6.95;100.00;100177.69;5039180;28;20090;-69
2024/03/29 01:45:42;;;;;;;9.55;2.78;;;;;;;6.91;100.00;100182.28;5037819;28;20064;-68
2024/03/29 01:48:10;;;;;;;8.20;2.72;;;;;;;6.92;100.00;100175.34;5039379;28;20032;-68
2024/03/29 01:50:37;;;;;;;6.95;2.13;;;;;;;6.90;100.00;100172.88;5040821;28;20048;-68
2024/03/29 01:53:05;;;;;;;7.75;2.38;;;;;;;6.87;100.00;100177.50;5032093;28;20388;-69
2024/03/29 01:55:31;;;;;;;5.13;2.17;;;;;;;6.82;100.00;100180.47;5035957;28;20428;-69
2024/03/29 01:57:58;;;;;;;6.30;2.22;;;;;;;6.79;100.00;100196.25;5045579;28;20028;-68
2024/03/29 02:00:24;;;;;;;5.63;1.98;;;;;;;6.75;100.00;100194.88;5040361;28;20091;-68
2024/03/29 02:02:50;;;;;;;11.40;2.35;;;;;;;6.71;100.00;100196.06;5037742;28;20053;-69
2024/03/29 02:05:16;;;;;;;9.32;2.38;;;;;;;6.64;100.00;100202.69;5041534;28;20076;-69
2024/03/29 02:07:42;;;;;;;5.78;1.30;;;;;;;6.80;100.00;100199.66;5045944;28;20037;-68
2024/03/29 02:10:12;;;;;;;7.45;1.48;;;;;;;7.02;100.00;100196.94;5039381;28;20033;-69
2024/03/29 02:12:38;;;;;;;4.57;1.52;;;;;;;6.94;100.00;100199.34;5043554;28;20043;-69
2024/03/29 02:15:05;;;;;;;6.13;1.58;;;;;;;6.82;100.00;100211.53;5045798;28;20029;-68
2024/03/29 02:17:31;;;;;;;3.80;1.67;;;;;;;6.81;100.00;100209.06;5045014;28;20099;-68
2024/03/29 02:19:57;;;;;;;7.20;1.15;;;;;;;6.76;100.00;100213.81;5034973;28;20120;-68
2024/03/29 02:22:24;;;;;;;8.02;1.40;;;;;;;6.69;100.00;100210.06;5045616;28;20120;-69
2024/03/29 02:24:52;;;;;;;2.08;0.85;;;;;;;6.64;100.00;100205.28;5044396;28;20033;-69
2024/03/29 02:27:18;;;;;;;3.95;0.90;;;;;;;6.58;100.00;100208.41;5042997;28;20036;-69
2024/03/29 02:29:43;;;;;;;4.22;1.02;;;;;;;6.54;100.00;100217.34;5049330;28;20112;-68
2024/03/29 02:32:09;;;;;;;1.88;0.70;;;;;;;6.46;100.00;100219.72;5042244;28;20071;-68
2024/03/29 02:34:34;;;;;;;2.33;0.82;;;;;;;6.44;100.00;100226.81;5040452;28;20049;-68
2024/03/29 02:37:01;;;;;;;12.23;1.63;;;;;;;6.39;100.00;100234.09;5044000;28;20025;-69
2024/03/29 02:39:27;;;;;;;8.65;1.05;;;;;;;6.37;100.00;100230.81;5042138;28;20479;-69
2024/03/29 02:41:52;;;;;;;12.73;0.82;;;;;;;6.37;100.00;100225.66;5039024;28;20163;-68
2024/03/29 02:44:18;;;;;;;10.05;0.93;;;;;;;6.33;100.00;100232.84;5038338;28;20040;-68
2024/03/29 02:46:43;;;;;;;3.80;0.70;;;;;;;6.31;100.00;100237.31;5042137;28;20041;-68
2024/03/29 02:49:09;;;;;;;9.98;0.80;;;;;;;6.31;100.00;100242.47;5033983;28;20033;-68
2024/03/29 02:51:35;;;;;;;9.90;0.90;;;;;;;6.24;100.00;100236.97;5038596;28;20033;-68
2024/03/29 02:54:01;;;;;;;7.43;1.15;;;;;;;6.35;100.00;100238.72;5042788;28;20079;-69
2024/03/29 02:56:27;;;;;;;3.88;1.05;;;;;;;6.50;100.00;100262.53;5035412;28;20061;-69
2024/03/29 02:58:52;;;;;;;3.20;1.15;;;;;;;6.48;100.00;100251.50;5033770;28;20049;-68
2024/03/29 03:01:18;;;;;;;5.60;1.00;;;;;;;6.51;100.00;100251.25;5040076;28;20060;-69
2024/03/29 03:03:44;;;;;;;4.53;1.17;;;;;;;6.56;100.00;100255.09;5051732;28;20033;-69
2024/03/29 03:06:09;;;;;;;7.63;0.90;;;;;;;6.61;100.00;100262.50;5039582;28;20029;-68
2024/03/29 03:11:18;;;;;;;6.97;1.00;;;;;;;6.77;100.00;100262.06;5038163;28;20047;-68
2024/03/29 03:13:44;;;;;;;8.18;1.48;;;;;;;6.85;100.00;100268.25;5046677;28;20036;-69
2024/03/29 03:16:09;;;;;;;6.40;1.00;;;;;;;6.89;100.00;100274.84;5043607;28;20058;-69
2024/03/29 03:18:35;;;;;;;5.45;1.48;;;;;;;6.89;100.00;100271.44;5047151;28;20033;-68
2024/03/29 03:21:01;;;;;;;10.45;1.67;;;;;;;6.96;100.00;100281.16;5046635;28;20515;-69
2024/03/29 03:23:27;;;;;;;2.90;1.40;;;;;;;7.05;100.00;100283.94;5043088;28;20033;-69
2024/03/29 03:25:57;;;;;;;6.30;1.05;;;;;;;7.13;100.00;100286.69;5045826;28;20393;-68
2024/03/29 03:28:22;;;;;;;4.97;0.90;;;;;;;7.21;100.00;100286.91;5041770;28;20025;-69
2024/03/29 03:30:53;;;;;;;3.17;1.25;;;;;;;7.23;100.00;100290.19;5036609;28;20473;-69
2024/03/29 03:33:19;;;;;;;7.82;1.63;;;;;;;7.24;100.00;100292.66;5034386;28;20053;-68
2024/03/29 03:35:45;;;;;;;3.47;1.35;;;;;;;7.26;100.00;100293.34;5040029;28;20029;-68
2024/03/29 03:38:11;;;;;;;5.38;1.17;;;;;;;7.30;100.00;100296.50;5038257;28;20098;-68
2024/03/29 03:40:37;;;;;;;3.33;1.50;;;;;;;7.30;100.00;100291.31;5037206;28;20044;-68
2024/03/29 03:43:03;;;;;;;3.13;0.82;;;;;;;7.28;100.00;100299.22;5044027;28;20029;-68
2024/03/29 03:45:29;;;;;;;2.20;0.90;;;;;;;7.33;100.00;100304.84;5049248;28;20641;-69
2024/03/29 03:47:54;;;;;;;5.20;0.90;;;;;;;7.39;100.00;100308.69;5048059;28;20025;-68
2024/03/29 03:50:20;;;;;;;2.65;1.05;;;;;;;7.40;100.00;100299.97;5040738;28;20515;-68
2024/03/29 03:52:45;;;;;;;4.50;0.90;;;;;;;7.38;100.00;100306.22;5036531;28;20040;-68
2024/03/29 03:55:11;;;;;;;11.25;1.17;;;;;;;7.42;100.00;100305.84;5041269;28;20048;-68
2024/03/29 03:57:36;;;;;;;3.53;1.80;;;;;;;7.43;100.00;100307.50;5042077;28;20032;-69
2024/03/29 04:00:03;;;;;;;6.78;1.50;;;;;;;7.48;100.00;100307.94;5041292;28;20044;-69
2024/03/29 04:02:28;;;;;;;7.03;1.25;;;;;;;7.47;100.00;100301.09;5031271;28;20039;-68
2024/03/29 04:04:54;;;;;;;4.53;1.45;;;;;;;7.47;100.00;100293.34;5041659;28;20443;-69
2024/03/29 04:07:19;;;;;;;1.77;0.90;;;;;;;7.45;100.00;100303.00;5043707;28;20028;-68
2024/03/29 04:09:45;;;;;;;5.60;1.38;;;;;;;7.46;100.00;100303.81;5044105;28;20033;-68
2024/03/29 04:12:11;;;;;;;2.95;1.25;;;;;;;7.45;100.00;100304.78;5044799;28;20044;-68
2024/03/29 04:14:36;;;;;;;4.13;0.98;;;;;;;7.46;100.00;100317.63;5057187;28;20025;-68
2024/03/29 04:17:02;;;;;;;3.22;1.38;;;;;;;7.48;100.00;100312.31;5036152;28;20094;-69
2024/03/29 04:19:28;;;;;;;1.98;1.08;;;;;;;7.52;100.00;100316.28;5038146;28;20029;-69
2024/03/29 04:21:54;;;;;;;3.42;0.95;;;;;;;7.51;100.00;100319.81;5032699;28;20449;-69
2024/03/29 04:24:19;;;;;;;2.50;0.85;;;;;;;7.52;100.00;100313.69;5043843;28;20106;-68
2024/03/29 04:26:47;;;;;;;2.90;0.82;;;;;;;7.56;100.00;100322.84;5036600;28;20103;-69
2024/03/29 04:29:12;;;;;;;3.63;1.40;;;;;;;7.65;100.00;100322.88;5037360;28;20067;-68
2024/03/29 04:31:38;;;;;;;5.70;0.82;;;;;;;7.62;100.00;100335.28;5039915;28;20087;-69
2024/03/29 04:34:03;;;;;;;3.75;1.05;;;;;;;7.61;100.00;100337.06;5047457;28;20053;-70
2024/03/29 04:36:29;;;;;;;2.72;1.05;;;;;;;7.61;100.00;100337.06;5038117;28;20102;-69
2024/03/29 04:38:55;;;;;;;3.72;1.10;;;;;;;7.62;100.00;100343.88;5040425;28;20043;-68
2024/03/29 04:41:20;;;;;;;2.35;0.85;;;;;;;7.64;100.00;100351.53;5043388;28;20057;-68
2024/03/29 04:43:46;;;;;;;2.40;0.77;;;;;;;7.68;100.00;100354.69;5039255;28;20056;-69
2024/03/29 04:46:13;;;;;;;5.07;0.52;;;;;;;7.72;100.00;100366.44;5042038;28;20067;-68
2024/03/29 04:48:40;;;;;;;6.25;0.70;;;;;;;7.76;100.00;100371.25;5042206;28;20094;-68
2024/03/29 04:51:05;;;;;;;4.57;0.60;;;;;;;7.79;100.00;100373.59;5044980;28;20495;-68
2024/03/29 04:53:31;;;;;;;10.00;1.10;;;;;;;7.81;100.00;100365.69;5040175;28;20036;-68
2024/03/29 04:55:57;;;;;;;1.42;0.60;;;;;;;7.83;100.00;100361.19;5046112;28;20035;-68
2024/03/29 04:58:24;;;;;;;5.78;1.23;;;;;;;7.85;100.00;100372.25;5037181;28;20409;-68
2024/03/29 05:00:50;;;;;;;4.45;0.88;;;;;;;7.85;100.00;100382.63;5042124;28;20108;-69
2024/03/29 05:03:20;;;;;;;8.25;0.95;;;;;;;7.76;100.00;100389.41;5038107;28;20025;-68
2024/03/29 05:05:46;;;;;;;7.05;1.05;;;;;;;7.81;100.00;100389.03;5038839;28;20037;-68
2024/03/29 05:08:12;;;;;;;5.72;1.05;;;;;;;7.85;100.00;100395.59;5042502;28;20090;-68
2024/03/29 05:10:39;;;;;;;1.98;0.75;;;;;;;7.89;100.00;100392.63;5042259;28;20033;-69
2024/03/29 05:13:05;;;;;;;6.50;0.70;;;;;;;7.96;100.00;100403.31;5038216;28;20475;-68
2024/03/29 05:15:31;;;;;;;3.10;0.70;;;;;;;8.01;100.00;100403.75;5056027;28;20017;-68
2024/03/29 05:17:56;;;;;;;1.77;0.77;;;;;;;8.03;100.00;100401.03;5037550;28;20469;-67
2024/03/29 05:20:21;;;;;;;1.45;0.73;;;;;;;8.01;100.00;100403.75;5033427;28;20510;-68
2024/03/29 05:22:47;;;;;;;1.05;0.40;;;;;;;8.06;100.00;100403.34;5037102;28;20377;-68
2024/03/29 05:25:12;;;;;;;1.95;0.82;;;;;;;8.05;100.00;100401.69;5037397;28;20068;-69
2024/03/29 05:27:38;;;;;;;2.08;1.02;;;;;;;8.05;100.00;100399.91;5040679;28;20032;-69
2024/03/29 05:30:04;;;;;;;2.95;0.95;;;;;;;8.12;100.00;100405.41;5049722;28;20033;-68
2024/03/29 05:32:30;;;;;;;12.18;1.30;;;;;;;8.23;100.00;100408.75;5044684;28;20036;-68
2024/03/29 05:34:56;;;;;;;11.07;1.35;;;;;;;8.33;100.00;100403.63;5047998;28;20024;-68
2024/03/29 05:37:24;;;;;;;7.78;1.00;;;;;;;8.44;100.00;100410.50;5040723;28;20128;-68
2024/03/29 05:39:58;;;;;;;6.15;0.65;;;;;;;8.55;100.00;100418.16;5043537;28;20025;-69
2024/03/29 05:42:27;;;;;;;4.80;0.80;;;;;;;8.62;100.00;100424.47;5041774;28;20025;-68
2024/03/29 05:44:53;;;;;;;2.75;0.73;;;;;;;8.66;100.00;100423.25;5038834;28;20504;-69
2024/03/29 05:47:19;;;;;;;4.80;0.90;;;;;;;8.69;100.00;100428.19;5037653;28;20037;-69
2024/03/29 05:49:44;;;;;;;8.27;0.93;;;;;;;8.75;100.00;100427.66;5035425;28;20032;-69
2024/03/29 05:52:13;;;;;;;5.63;0.70;;;;;;;8.78;100.00;100427.38;5031076;28;20034;-68
2024/03/29 05:54:40;;;;;;;6.22;1.10;;;;;;;8.80;100.00;100428.06;5034217;28;20033;-69
2024/03/29 05:57:06;;;;;;;3.53;0.63;;;;;;;8.81;100.00;100426.31;5038739;28;20056;-68
2024/03/29 05:59:32;;;;;;;7.78;0.60;;;;;;;8.82;100.00;100436.56;5033844;28;20128;-69
2024/03/29 06:01:58;;;;;;;6.63;0.50;;;;;;;8.84;100.00;100439.84;5029767;28;20041;-68
2024/03/29 06:04:30;;;;;;;8.43;0.68;;;;;;;8.87;100.00;100443.94;5030892;28;20477;-68
2024/03/29 06:06:57;;;;;;;7.47;0.75;;;;;;;8.89;100.00;100445.47;5037990;28;20036;-68
2024/03/29 06:09:23;;;;;;;7.07;0.63;;;;;;;8.89;100.00;100448.06;5042176;28;20036;-68
2024/03/29 06:11:49;;;;;;;4.25;0.57;;;;;;;8.96;100.00;100445.75;5036214;28;20021;-68
2024/03/29 06:19:42;;;;;;;7.10;1.02;;;;;;;9.14;100.00;100440.69;5032666;28;20109;-68
2024/03/29 06:22:09;;;;;;;8.95;1.08;;;;;;;9.09;100.00;100442.88;5032283;28;20035;-68
2024/03/29 06:24:34;;;;;;;10.57;1.23;;;;;;;9.14;100.00;100438.09;5041911;28;20120;-68
2024/03/29 06:27:00;;;;;;;6.10;1.27;;;;;;;9.15;100.00;100447.53;5046682;28;20107;-68
2024/03/29 06:29:26;;;;;;;6.97;1.35;;;;;;;9.23;100.00;100452.88;5033509;28;20037;-68
2024/03/29 06:31:51;;;;;;;6.18;0.93;;;;;;;9.32;100.00;100449.47;5029801;28;20052;-69
2024/03/29 06:34:17;;;;;;;6.63;1.48;;;;;;;9.29;100.00;100441.94;5029335;28;20045;-68
2024/03/29 06:36:42;;;;;;;4.95;0.93;;;;;;;9.29;100.00;100447.13;5044039;28;20546;-68
2024/03/29 06:39:08;;;;;;;4.65;1.33;;;;;;;9.32;100.00;100447.69;5042638;28;20481;-68
2024/03/29 06:41:34;;;;;;;5.38;2.42;;;;;;;9.32;100.00;100452.06;5036895;28;20040;-68
2024/03/29 06:43:59;;;;;;;7.05;2.50;;;;;;;9.40;100.00;100441.81;5036471;28;20083;-68
2024/03/29 06:46:25;;;;;;;5.30;2.55;;;;;;;9.32;100.00;100441.66;5039265;28;20033;-68
2024/03/29 06:48:51;;;;;;;7.68;2.72;;;;;;;9.22;100.00;100436.47;5038695;28;20391;-68
2024/03/29 06:51:16;;;;;;;7.82;3.30;;;;;;;9.26;100.00;100437.81;5038991;28;20040;-68
2024/03/29 06:53:42;;;;;;;15.18;3.28;;;;;;;9.32;100.00;100447.69;5040925;28;20059;-68
2024/03/29 06:56:07;;;;;;;6.03;2.65;;;;;;;9.38;100.00;100443.72;5037202;28;20045;-68
2024/03/29 06:58:33;;;;;;;6.47;2.85;;;;;;;9.43;100.00;100444.13;5046809;28;20057;-68
2024/03/29 07:00:58;;;;;;;5.55;2.83;;;;;;;9.45;100.00;100447.38;5038537;28;20055;-68
2024/03/29 07:03:24;;;;;;;10.45;3.80;;;;;;;9.47;100.00;100450.66;5038043;28;23765;-69
2024/03/29 07:05:50;;;;;;;6.05;3.13;;;;;;;9.52;100.00;100453.69;5034924;28;20512;-69
2024/03/29 07:08:16;;;;;;;6.68;3.13;;;;;;;9.54;100.00;100456.97;5040039;28;20090;-68
2024/03/29 07:10:41;;;;;;;7.53;1.38;;;;;;;9.49;100.00;100450.53;5043088;28;20036;-67
2024/03/29 07:13:07;;;;;;;4.85;1.23;;;;;;;9.46;100.00;100443.00;5036457;28;20086;-68
2024/03/29 07:15:33;;;;;;;11.02;1.67;;;;;;;9.46;100.00;100441.22;5048997;28;20037;-69
2024/03/29 07:18:00;;;;;;;6.40;1.15;;;;;;;9.50;100.00;100447.78;5045125;28;20119;-69
2024/03/29 07:20:26;;;;;;;2.33;1.00;;;;;;;9.49;100.00;100445.34;5037191;28;20029;-68
2024/03/29 07:22:52;;;;;;;5.45;1.08;;;;;;;9.49;100.00;100435.75;5037494;28;20025;-68
2024/03/29 07:25:17;;;;;;;3.47;1.15;;;;;;;9.56;100.00;100442.03;5034258;28;20032;-69
2024/03/29 07:27:43;;;;;;;6.40;1.17;;;;;;;9.58;100.00;100447.94;5043740;28;20036;-68
2024/03/29 07:30:11;;;;;;;11.45;1.23;;;;;;;9.62;100.00;100451.09;5035893;28;20033;-68
2024/03/29 07:32:37;;;;;;;3.95;1.40;;;;;;;9.63;100.00;100453.53;5035731;28;20099;-68
2024/03/29 07:35:02;;;;;;;2.85;1.13;;;;;;;9.64;100.00;100455.19;5038007;28;20436;-68
2024/03/29 07:37:28;;;;;;;8.93;1.70;;;;;;;9.72;100.00;100466.69;5036353;28;20021;-68
2024/03/29 07:39:54;;;;;;;8.40;1.92;;;;;;;9.76;100.00;100462.84;5038059;28;20184;-68
2024/03/29 07:42:19;;;;;;;8.65;2.15;;;;;;;9.77;100.00;100475.72;5040357;28;20045;-68
2024/03/29 07:44:45;;;;;;;6.15;1.52;;;;;;;9.77;100.00;100465.31;5038754;28;20390;-68
2024/03/29 07:47:13;;;;;;;5.60;2.13;;;;;;;9.84;100.00;100463.78;5041897;28;20037;-68
2024/03/29 07:49:38;;;;;;;3.97;1.33;;;;;;;9.97;100.00;100466.06;5041177;28;20033;-68
2024/03/29 07:52:05;;;;;;;4.68;1.08;;;;;;;10.06;100.00;100472.22;5033277;28;20091;-68
2024/03/29 07:54:32;;;;;;;6.88;1.02;;;;;;;10.01;100.00;100471.81;5038731;28;20076;-67
2024/03/29 07:56:57;;;;;;;2.42;0.40;;;;;;;9.86;100.00;100471.47;5038781;28;20360;-68
2024/03/29 07:59:22;;;;;;;0.65;0.30;;;;;;;9.73;100.00;100473.53;5039579;28;20056;-68
2024/03/29 08:01:48;;;;;;;3.08;0.40;;;;;;;9.71;100.00;100467.66;5037394;28;20140;-68
2024/03/29 08:04:13;;;;;;;5.10;0.75;;;;;;;9.71;100.00;100475.44;5047750;28;20037;-68
2024/03/29 08:06:39;;;;;;;8.02;0.55;;;;;;;9.75;100.00;100475.03;5036793;28;20120;-68
2024/03/29 08:09:04;;;;;;;4.65;0.40;;;;;;;9.75;100.00;100472.44;5038628;28;20488;-68
2024/03/29 08:11:30;;;;;;;1.98;0.32;;;;;;;9.83;100.00;100469.13;5038506;28;20047;-68
2024/03/29 08:13:55;;;;;;;1.95;0.50;;;;;;;10.01;100.00;100467.44;5044454;28;20038;-68
2024/03/29 08:16:21;;;;;;;2.28;0.40;;;;;;;10.04;100.00;100472.38;5041043;28;20116;-68
2024/03/29 08:18:49;;;;;;;1.95;0.40;;;;;;;9.92;100.00;100474.31;5040675;28;20024;-68
2024/03/29 08:21:15;;;;;;;4.90;0.52;;;;;;;9.83;100.00;100475.16;5038840;28;20029;-68
2024/03/29 08:23:41;;;;;;;3.28;0.45;;;;;;;9.80;100.00;100482.44;5047678;28;20461;-68
2024/03/29 08:26:07;;;;;;;5.38;0.55;;;;;;;9.86;100.00;100487.91;5033297;28;20029;-68
2024/03/29 08:28:35;;;;;;;6.70;0.47;;;;;;;9.97;100.00;100479.91;5037182;28;20044;-68
2024/03/29 08:31:03;;;;;;;3.20;0.60;;;;;;;10.04;100.00;100485.38;5039694;28;20115;-68
2024/03/29 08:33:30;;;;;;;4.43;0.52;;;;;;;10.17;100.00;100482.47;5034624;28;20137;-68
2024/03/29 08:35:56;;;;;;;9.75;0.40;;;;;;;10.26;100.00;100489.47;5034281;28;20393;-68
2024/03/29 08:38:23;;;;;;;6.28;0.50;;;;;;;10.28;100.00;100490.16;5036685;28;20026;-68
2024/03/29 08:40:49;;;;;;;3.00;0.40;;;;;;;10.38;100.00;100501.38;5033767;28;20166;-68
2024/03/29 08:43:18;;;;;;;6.22;0.70;;;;;;;10.34;100.00;100491.38;5037023;28;20485;-68
2024/03/29 08:45:46;;;;;;;3.92;0.77;;;;;;;10.37;100.00;100488.50;5039766;28;20067;-68
2024/03/29 08:48:12;;;;;;;4.85;0.57;;;;;;;10.32;100.00;100493.31;5034900;28;20042;-68
2024/03/29 08:50:38;;;;;;;2.85;0.60;;;;;;;10.34;100.00;100488.78;5039454;28;20033;-68
2024/03/29 08:53:04;;;;;;;9.50;0.82;;;;;;;10.34;100.00;100486.16;5037713;28;20029;-68
2024/03/29 08:55:30;;;;;;;9.20;0.50;;;;;;;10.29;100.00;100487.41;5041995;28;20477;-68
2024/03/29 08:58:00;;;;;;;6.78;0.75;;;;;;;10.34;100.00;100480.97;5034279;28;20079;-69
2024/03/29 09:00:26;;;;;;;2.58;0.50;;;;;;;10.38;100.00;100482.31;5033581;28;20102;-67
2024/03/29 09:02:52;;;;;;;6.30;0.80;;;;;;;10.36;100.00;100484.25;5035348;28;20535;-71
2024/03/29 09:05:17;;;;;;;8.80;0.77;;;;;;;10.43;100.00;100487.88;5037903;28;20037;-70
2024/03/29 09:07:43;;;;;;;7.10;0.75;;;;;;;10.48;100.00;100491.72;5038731;28;20429;-69
2024/03/29 09:10:08;;;;;;;7.32;0.50;;;;;;;10.52;100.00;100493.06;5045709;28;20032;-71
2024/03/29 09:12:34;;;;;;;3.92;0.70;;;;;;;10.58;100.00;100487.28;5046772;28;20056;-70
2024/03/29 09:15:00;;;;;;;5.28;0.30;;;;;;;10.69;100.00;100493.28;5038697;28;20086;-70
2024/03/29 09:17:26;;;;;;;9.60;0.50;;;;;;;10.75;100.00;100497.91;5038775;28;20037;-69
2024/03/29 09:19:52;;;;;;;7.80;0.55;;;;;;;10.92;100.00;100502.34;5041294;28;20472;-70
2024/03/29 09:22:18;;;;;;;8.50;0.57;;;;;;;10.84;100.00;100500.47;5044511;28;20043;-70
2024/03/29 09:24:44;;;;;;;6.88;0.43;;;;;;;10.85;100.00;100493.47;5048307;28;20119;-69
2024/03/29 09:27:09;;;;;;;9.48;0.68;;;;;;;10.83;100.00;100485.00;5042939;28;20044;-69
2024/03/29 09:29:35;;;;;;;10.65;1.42;;;;;;;10.85;100.00;100483.06;5045563;28;20453;-69
2024/03/29 09:32:01;;;;;;;1.77;0.40;;;;;;;10.93;100.00;100489.16;5041709;28;20029;-70
2024/03/29 09:34:28;;;;;;;8.40;0.60;;;;;;;11.01;100.00;100482.41;5034729;28;20049;-69
2024/03/29 09:36:53;;;;;;;7.53;0.52;;;;;;;11.14;100.00;100488.06;5045987;28;20056;-70
2024/03/29 09:39:19;;;;;;;6.22;0.40;;;;;;;11.26;100.00;100487.72;5040017;28;20072;-69
2024/03/29 09:41:45;;;;;;;8.43;0.70;;;;;;;11.47;100.00;100491.81;5035940;28;20108;-69
2024/03/29 09:44:12;;;;;;;5.15;0.75;;;;;;;11.60;100.00;100485.25;5039266;28;20155;-69
2024/03/29 09:46:41;;;;;;;7.07;0.65;;;;;;;11.75;100.00;100485.53;5041092;28;20068;-70
2024/03/29 09:49:07;;;;;;;4.68;0.80;;;;;;;11.86;100.00;100479.25;5043694;28;20480;-70
2024/03/29 09:51:34;;;;;;;8.68;1.20;;;;;;;11.83;100.00;100480.38;5040517;28;20033;-70
2024/03/29 09:54:01;;;;;;;9.02;0.93;;;;;;;11.83;100.00;100480.38;5043449;28;20031;-75
2024/03/29 09:56:27;;;;;;;8.05;1.13;;;;;;;11.93;100.00;100481.13;5037737;28;20059;-68
2024/03/29 09:58:53;;;;;;;8.27;0.80;;;;;;;12.03;100.00;100478.41;5046994;28;20029;-69
2024/03/29 10:01:18;;;;;;;3.10;0.40;;;;;;;11.95;100.00;100473.13;5036927;28;20140;-68
2024/03/29 10:03:52;;;;;;;2.22;0.60;;;;;;;11.98;100.00;100475.44;5040494;28;20342;-67
2024/03/29 10:06:23;;;;;;;4.43;0.40;;;;;;;11.96;100.00;100474.75;5031883;28;20473;-67
2024/03/29 10:08:49;;;;;;;12.52;0.95;;;;;;;11.89;100.00;100473.72;5040384;28;20032;-68
2024/03/29 10:11:19;;;;;;;5.18;0.82;;;;;;;11.91;100.00;100472.59;5045581;28;20025;-68
2024/03/29 10:13:45;;;;;;;2.75;0.38;;;;;;;11.89;100.00;100469.34;5045894;28;20036;-68
2024/03/29 10:16:12;;;;;;;4.65;0.55;;;;;;;11.98;100.00;100472.81;5036721;28;20039;-68
2024/03/29 10:18:40;;;;;;;2.92;0.40;;;;;;;12.12;100.00;100472.25;5044250;28;20040;-69
2024/03/29 10:21:07;;;;;;;2.55;0.38;;;;;;;12.18;100.00;100465.59;5040913;28;20377;-68
2024/03/29 10:23:35;;;;;;;1.65;0.20;;;;;;;12.21;100.00;100460.91;5047164;28;20030;-68
2024/03/29 10:26:01;;;;;;;6.93;0.20;;;;;;;12.17;100.00;100462.19;5046539;28;20090;-69
2024/03/29 10:28:34;;;;;;;3.97;0.20;;;;;;;12.41;100.00;100452.81;5043314;28;20531;-68
2024/03/29 10:31:04;;;;;;;4.10;0.52;;;;;;;12.49;100.00;100456.28;5039251;28;20056;-68
2024/03/29 10:33:33;;;;;;;6.10;0.25;;;;;;;12.48;100.00;100449.41;5039422;28;20052;-68
2024/03/29 10:36:07;;;;;;;1.70;0.50;;;;;;;12.66;100.00;100453.75;5045811;28;20112;-69
2024/03/29 10:38:34;;;;;;;4.53;0.45;;;;;;;12.95;100.00;100456.75;5039365;28;20511;-69
2024/03/29 10:41:00;;;;;;;6.75;0.50;;;;;;;13.01;100.00;100457.91;5040546;28;20040;-69
2024/03/29 10:43:27;;;;;;;6.57;0.28;;;;;;;13.07;100.00;100457.28;5043109;28;20079;-69
2024/03/29 10:45:59;;;;;;;4.18;0.20;;;;;;;13.08;100.00;100448.44;5038614;28;20029;-68
2024/03/29 10:48:27;;;;;;;3.90;0.20;;;;;;;13.05;100.00;100451.38;5040993;28;20036;-69
2024/03/29 10:50:57;;;;;;;3.42;0.13;;;;;;;13.02;100.00;100451.72;5043522;28;20029;-67
2024/03/29 10:53:26;;;;;;;4.63;0.63;;;;;;;13.13;100.00;100467.09;5042017;28;20064;-67
2024/03/29 10:55:57;;;;;;;2.88;0.40;;;;;;;13.25;100.00;100466.63;5036124;28;20495;-67
2024/03/29 10:58:29;;;;;;;5.65;0.40;;;;;;;13.29;100.00;100472.38;5036721;28;20036;-67
2024/03/29 11:00:57;;;;;;;2.53;0.38;;;;;;;13.49;100.00;100465.84;5043661;28;20044;-67
2024/03/29 11:03:40;;;;;;;4.15;0.30;;;;;;;13.72;100.00;100466.00;5038849;28;20077;-67
2024/03/29 11:06:07;;;;;;;4.55;0.30;;;;;;;13.97;100.00;100451.09;5042004;28;20400;-67
2024/03/29 11:08:37;;;;;;;8.07;0.30;;;;;;;14.00;100.00;100442.88;5037312;28;20033;-67
2024/03/29 11:11:04;;;;;;;8.98;0.50;;;;;;;13.94;100.00;100448.78;5043034;28;20115;-67
2024/03/29 11:13:52;;;;;;;5.00;0.30;;;;;;;14.06;100.00;100447.47;5047963;28;20518;-66
2024/03/29 11:16:20;;;;;;;7.57;0.30;;;;;;;13.92;100.00;100445.53;5032611;28;20421;-67
2024/03/29 11:18:47;;;;;;;4.63;0.20;;;;;;;14.10;100.00;100451.38;5040051;28;20392;-67
2024/03/29 11:21:18;;;;;;;3.97;0.63;;;;;;;14.47;100.00;100456.03;5047819;28;20486;-67
2024/03/29 11:23:48;;;;;;;6.32;0.43;;;;;;;14.72;100.00;100467.22;5044124;28;21300;-67
2024/03/29 11:26:14;;;;;;;5.80;0.57;;;;;;;14.80;100.00;100463.75;5043042;28;20067;-67